sensor_id;sensor_type;location;lat;lon;timestamp;temperature;humidity
13091;DHT22;6611;52.604;13.438;2023-07-29T00:03:26;17.50;90.47
13091;DHT22;6611;52.604;13.438;2023-07-29T00:08:31;17.49;90.40
13091;DHT22;6611;52.604;13.438;2023-07-29T00:13:33;17.45;90.13
13091;DHT22;6611;52.604;13.438;2023-07-29T00:18:34;17.33;90.33
13091;DHT22;6611;52.604;13.438;2023-07-29T00:23:37;17.28;90.28
13091;DHT22;6611;52.604;13.438;2023-07-29T00:28:39;17.23;90.56
13091;DHT22;6611;52.604;13.438;2023-07-29T00:33:41;17.18;90.22
13091;DHT22;6611;52.604;13.438;2023-07-29T00:38:44;17.09;90.06
13091;DHT22;6611;52.604;13.438;2023-07-29T00:43:45;17.04;90.15
13091;DHT22;6611;52.604;13.438;2023-07-29T00:48:47;16.96;90.15
13091;DHT22;6611;52.604;13.438;2023-07-29T00:53:50;16.89;90.09
13091;DHT22;6611;52.604;13.438;2023-07-29T00:58:52;16.94;90.04
13091;DHT22;6611;52.604;13.438;2023-07-29T01:03:59;16.84;90.43
13091;DHT22;6611;52.604;13.438;2023-07-29T01:09:04;16.81;90.32
13091;DHT22;6611;52.604;13.438;2023-07-29T01:14:18;16.78;90.33
13091;DHT22;6611;52.604;13.438;2023-07-29T01:19:34;16.68;90.59
13091;DHT22;6611;52.604;13.438;2023-07-29T01:24:40;16.68;90.47
13091;DHT22;6611;52.604;13.438;2023-07-29T01:29:41;16.63;90.39
13091;DHT22;6611;52.604;13.438;2023-07-29T01:34:47;16.59;90.74
13091;DHT22;6611;52.604;13.438;2023-07-29T01:39:54;16.59;90.55
13091;DHT22;6611;52.604;13.438;2023-07-29T01:44:58;16.56;90.50
13091;DHT22;6611;52.604;13.438;2023-07-29T01:49:59;16.53;90.44
13091;DHT22;6611;52.604;13.438;2023-07-29T01:55:03;16.53;90.52
13091;DHT22;6611;52.604;13.438;2023-07-29T02:00:06;16.47;90.26
13091;DHT22;6611;52.604;13.438;2023-07-29T02:05:08;16.47;90.45
13091;DHT22;6611;52.604;13.438;2023-07-29T02:10:11;16.42;90.46
13091;DHT22;6611;52.604;13.438;2023-07-29T02:15:13;16.46;90.45
13091;DHT22;6611;52.604;13.438;2023-07-29T02:20:14;16.34;90.34
13091;DHT22;6611;52.604;13.438;2023-07-29T02:25:17;16.28;90.25
13091;DHT22;6611;52.604;13.438;2023-07-29T02:30:20;16.28;90.39
13091;DHT22;6611;52.604;13.438;2023-07-29T02:35:22;16.23;90.16
13091;DHT22;6611;52.604;13.438;2023-07-29T02:40:25;16.18;90.40
13091;DHT22;6611;52.604;13.438;2023-07-29T02:45:27;16.22;90.66
13091;DHT22;6611;52.604;13.438;2023-07-29T02:50:29;16.25;90.66
13091;DHT22;6611;52.604;13.438;2023-07-29T02:55:32;16.30;91.10
13091;DHT22;6611;52.604;13.438;2023-07-29T03:00:33;16.29;90.81
13091;DHT22;6611;52.604;13.438;2023-07-29T03:05:35;16.25;90.84
13091;DHT22;6611;52.604;13.438;2023-07-29T03:10:39;16.23;90.45
13091;DHT22;6611;52.604;13.438;2023-07-29T03:15:42;16.15;90.61
13091;DHT22;6611;52.604;13.438;2023-07-29T03:20:44;16.22;90.23
13091;DHT22;6611;52.604;13.438;2023-07-29T03:25:49;16.18;90.43
13091;DHT22;6611;52.604;13.438;2023-07-29T03:30:51;16.12;90.59
13091;DHT22;6611;52.604;13.438;2023-07-29T03:35:54;16.14;90.45
13091;DHT22;6611;52.604;13.438;2023-07-29T03:40:57;16.16;90.65
13091;DHT22;6611;52.604;13.438;2023-07-29T03:45:59;16.18;90.49
13091;DHT22;6611;52.604;13.438;2023-07-29T03:51:01;16.23;90.59
13091;DHT22;6611;52.604;13.438;2023-07-29T03:56:04;16.25;90.83
13091;DHT22;6611;52.604;13.438;2023-07-29T04:01:06;16.34;90.75
13091;DHT22;6611;52.604;13.438;2023-07-29T04:06:07;16.42;91.07
13091;DHT22;6611;52.604;13.438;2023-07-29T04:11:11;16.45;90.96
13091;DHT22;6611;52.604;13.438;2023-07-29T04:16:12;16.47;91.23
13091;DHT22;6611;52.604;13.438;2023-07-29T04:21:14;16.57;91.30
13091;DHT22;6611;52.604;13.438;2023-07-29T04:26:17;16.56;91.28
13091;DHT22;6611;52.604;13.438;2023-07-29T04:31:18;16.60;91.37
13091;DHT22;6611;52.604;13.438;2023-07-29T04:36:20;16.71;91.45
13091;DHT22;6611;52.604;13.438;2023-07-29T04:41:23;16.88;91.23
13091;DHT22;6611;52.604;13.438;2023-07-29T04:46:25;17.07;90.98
13091;DHT22;6611;52.604;13.438;2023-07-29T04:51:26;17.16;90.77
13091;DHT22;6611;52.604;13.438;2023-07-29T04:56:29;17.29;90.69
13091;DHT22;6611;52.604;13.438;2023-07-29T05:01:31;17.42;90.65
13091;DHT22;6611;52.604;13.438;2023-07-29T05:06:33;17.56;90.60
13091;DHT22;6611;52.604;13.438;2023-07-29T05:11:36;18.08;91.01
13091;DHT22;6611;52.604;13.438;2023-07-29T05:16:38;18.71;89.62
13091;DHT22;6611;52.604;13.438;2023-07-29T05:21:39;19.29;87.29
13091;DHT22;6611;52.604;13.438;2023-07-29T05:26:42;19.31;85.77
13091;DHT22;6611;52.604;13.438;2023-07-29T05:31:44;19.16;86.48
13091;DHT22;6611;52.604;13.438;2023-07-29T05:36:45;19.11;86.65
13091;DHT22;6611;52.604;13.438;2023-07-29T05:41:48;19.06;87.35
13091;DHT22;6611;52.604;13.438;2023-07-29T05:46:50;19.15;88.24
13091;DHT22;6611;52.604;13.438;2023-07-29T05:51:52;19.26;87.62
13091;DHT22;6611;52.604;13.438;2023-07-29T05:56:55;19.23;86.76
13091;DHT22;6611;52.604;13.438;2023-07-29T06:01:56;19.27;86.97
13091;DHT22;6611;52.604;13.438;2023-07-29T06:06:58;19.39;87.08
13091;DHT22;6611;52.604;13.438;2023-07-29T06:12:01;19.58;87.44
13091;DHT22;6611;52.604;13.438;2023-07-29T06:17:03;19.75;86.16
13091;DHT22;6611;52.604;13.438;2023-07-29T06:22:07;19.89;85.94
13091;DHT22;6611;52.604;13.438;2023-07-29T06:27:10;20.06;84.77
13091;DHT22;6611;52.604;13.438;2023-07-29T06:32:11;20.37;84.61
13091;DHT22;6611;52.604;13.438;2023-07-29T06:37:13;20.74;84.39
13091;DHT22;6611;52.604;13.438;2023-07-29T06:42:16;20.78;82.85
13091;DHT22;6611;52.604;13.438;2023-07-29T06:47:18;20.87;83.37
13091;DHT22;6611;52.604;13.438;2023-07-29T06:52:19;21.10;83.06
13091;DHT22;6611;52.604;13.438;2023-07-29T06:57:23;21.67;80.53
13091;DHT22;6611;52.604;13.438;2023-07-29T07:02:24;22.08;79.34
13091;DHT22;6611;52.604;13.438;2023-07-29T07:07:26;22.61;78.03
13091;DHT22;6611;52.604;13.438;2023-07-29T07:12:29;22.46;78.46
13091;DHT22;6611;52.604;13.438;2023-07-29T07:17:30;22.43;78.87
13091;DHT22;6611;52.604;13.438;2023-07-29T07:22:32;22.75;76.87
13091;DHT22;6611;52.604;13.438;2023-07-29T07:27:36;22.48;76.50
13091;DHT22;6611;52.604;13.438;2023-07-29T07:32:37;22.02;79.11
13091;DHT22;6611;52.604;13.438;2023-07-29T07:37:39;21.89;79.98
13091;DHT22;6611;52.604;13.438;2023-07-29T07:42:42;22.01;80.21
13091;DHT22;6611;52.604;13.438;2023-07-29T07:47:43;22.17;79.12
13091;DHT22;6611;52.604;13.438;2023-07-29T07:52:45;22.29;79.27
13091;DHT22;6611;52.604;13.438;2023-07-29T07:57:48;22.13;79.54
13091;DHT22;6611;52.604;13.438;2023-07-29T08:02:50;22.71;77.98
13091;DHT22;6611;52.604;13.438;2023-07-29T08:07:51;23.53;74.81
13091;DHT22;6611;52.604;13.438;2023-07-29T08:12:55;24.12;73.93
13091;DHT22;6611;52.604;13.438;2023-07-29T08:17:56;24.53;71.49
13091;DHT22;6611;52.604;13.438;2023-07-29T08:22:58;24.26;72.39
13091;DHT22;6611;52.604;13.438;2023-07-29T08:28:01;24.51;73.03
13091;DHT22;6611;52.604;13.438;2023-07-29T08:33:03;25.15;71.82
13091;DHT22;6611;52.604;13.438;2023-07-29T08:38:04;24.43;72.59
13091;DHT22;6611;52.604;13.438;2023-07-29T08:43:08;23.77;72.43
13091;DHT22;6611;52.604;13.438;2023-07-29T08:48:10;23.49;74.94
13091;DHT22;6611;52.604;13.438;2023-07-29T08:53:13;23.57;75.55
13091;DHT22;6611;52.604;13.438;2023-07-29T08:58:17;23.81;74.15
13091;DHT22;6611;52.604;13.438;2023-07-29T09:03:19;23.62;74.90
13091;DHT22;6611;52.604;13.438;2023-07-29T09:08:21;23.55;73.93
13091;DHT22;6611;52.604;13.438;2023-07-29T09:13:25;23.13;76.46
13091;DHT22;6611;52.604;13.438;2023-07-29T09:18:27;23.19;75.74
13091;DHT22;6611;52.604;13.438;2023-07-29T09:23:38;23.33;75.06
13091;DHT22;6611;52.604;13.438;2023-07-29T09:28:42;23.72;75.04
13091;DHT22;6611;52.604;13.438;2023-07-29T09:33:43;24.12;72.68
13091;DHT22;6611;52.604;13.438;2023-07-29T09:38:45;24.54;70.80
13091;DHT22;6611;52.604;13.438;2023-07-29T09:43:55;24.33;70.95
13091;DHT22;6611;52.604;13.438;2023-07-29T09:48:56;24.30;70.98
13091;DHT22;6611;52.604;13.438;2023-07-29T09:54:02;24.20;72.51
13091;DHT22;6611;52.604;13.438;2023-07-29T09:59:05;24.43;72.41
13091;DHT22;6611;52.604;13.438;2023-07-29T10:04:08;24.53;72.81
13091;DHT22;6611;52.604;13.438;2023-07-29T10:09:11;24.44;71.38
13091;DHT22;6611;52.604;13.438;2023-07-29T10:14:15;24.40;72.36
13091;DHT22;6611;52.604;13.438;2023-07-29T10:19:17;24.69;70.80
13091;DHT22;6611;52.604;13.438;2023-07-29T10:24:22;25.05;68.93
13091;DHT22;6611;52.604;13.438;2023-07-29T10:29:31;24.92;70.87
13091;DHT22;6611;52.604;13.438;2023-07-29T10:34:33;24.63;71.74
13091;DHT22;6611;52.604;13.438;2023-07-29T10:39:39;24.21;70.86
13091;DHT22;6611;52.604;13.438;2023-07-29T10:44:50;23.75;72.78
13091;DHT22;6611;52.604;13.438;2023-07-29T10:49:53;23.79;72.72
13091;DHT22;6611;52.604;13.438;2023-07-29T10:54:55;23.90;72.58
13091;DHT22;6611;52.604;13.438;2023-07-29T11:00:00;23.93;71.29
13091;DHT22;6611;52.604;13.438;2023-07-29T11:05:05;23.79;71.54
13091;DHT22;6611;52.604;13.438;2023-07-29T11:10:07;23.37;73.68
13091;DHT22;6611;52.604;13.438;2023-07-29T11:15:19;22.82;76.29
13091;DHT22;6611;52.604;13.438;2023-07-29T11:20:25;22.19;77.20
13091;DHT22;6611;52.604;13.438;2023-07-29T11:25:29;21.71;79.12
13091;DHT22;6611;52.604;13.438;2023-07-29T11:30:32;20.81;83.33
13091;DHT22;6611;52.604;13.438;2023-07-29T11:35:34;20.30;84.84
13091;DHT22;6611;52.604;13.438;2023-07-29T11:40:35;20.06;86.12
13091;DHT22;6611;52.604;13.438;2023-07-29T11:45:40;20.05;86.53
13091;DHT22;6611;52.604;13.438;2023-07-29T11:50:42;20.10;86.73
13091;DHT22;6611;52.604;13.438;2023-07-29T11:55:44;20.23;86.62
13091;DHT22;6611;52.604;13.438;2023-07-29T12:00:48;20.26;86.95
13091;DHT22;6611;52.604;13.438;2023-07-29T12:05:50;20.36;87.45
13091;DHT22;6611;52.604;13.438;2023-07-29T12:10:52;20.51;86.94
13091;DHT22;6611;52.604;13.438;2023-07-29T12:16:02;20.60;87.25
13091;DHT22;6611;52.604;13.438;2023-07-29T12:21:03;20.78;86.85
13091;DHT22;6611;52.604;13.438;2023-07-29T12:26:05;20.88;86.11
13091;DHT22;6611;52.604;13.438;2023-07-29T12:31:08;21.02;85.86
13091;DHT22;6611;52.604;13.438;2023-07-29T12:36:10;21.15;85.46
13091;DHT22;6611;52.604;13.438;2023-07-29T12:41:11;21.13;84.82
13091;DHT22;6611;52.604;13.438;2023-07-29T12:46:14;21.10;84.64
13091;DHT22;6611;52.604;13.438;2023-07-29T12:51:16;21.32;84.92
13091;DHT22;6611;52.604;13.438;2023-07-29T12:56:18;21.78;84.70
13091;DHT22;6611;52.604;13.438;2023-07-29T13:01:21;22.21;83.10
13091;DHT22;6611;52.604;13.438;2023-07-29T13:06:22;22.40;82.43
13091;DHT22;6611;52.604;13.438;2023-07-29T13:11:24;22.63;81.46
13091;DHT22;6611;52.604;13.438;2023-07-29T13:16:28;22.78;81.55
13091;DHT22;6611;52.604;13.438;2023-07-29T13:21:30;22.76;82.22
13091;DHT22;6611;52.604;13.438;2023-07-29T13:26:31;22.55;83.09
13091;DHT22;6611;52.604;13.438;2023-07-29T13:31:34;22.41;85.29
13091;DHT22;6611;52.604;13.438;2023-07-29T13:36:36;22.41;84.71
13091;DHT22;6611;52.604;13.438;2023-07-29T13:41:38;22.69;84.61
13091;DHT22;6611;52.604;13.438;2023-07-29T13:46:41;23.15;82.94
13091;DHT22;6611;52.604;13.438;2023-07-29T13:51:42;23.23;81.36
13091;DHT22;6611;52.604;13.438;2023-07-29T13:56:44;22.94;81.59
13091;DHT22;6611;52.604;13.438;2023-07-29T14:01:47;22.78;81.93
13091;DHT22;6611;52.604;13.438;2023-07-29T14:06:49;22.94;80.85
13091;DHT22;6611;52.604;13.438;2023-07-29T14:11:50;23.16;81.37
13091;DHT22;6611;52.604;13.438;2023-07-29T14:16:53;23.23;80.86
13091;DHT22;6611;52.604;13.438;2023-07-29T14:21:55;23.24;79.15
13091;DHT22;6611;52.604;13.438;2023-07-29T14:26:57;22.89;79.53
13091;DHT22;6611;52.604;13.438;2023-07-29T14:32:00;22.72;80.03
13091;DHT22;6611;52.604;13.438;2023-07-29T14:37:01;22.71;80.11
13091;DHT22;6611;52.604;13.438;2023-07-29T14:42:03;22.75;81.06
13091;DHT22;6611;52.604;13.438;2023-07-29T14:47:07;22.81;80.99
13091;DHT22;6611;52.604;13.438;2023-07-29T14:52:09;22.71;79.94
13091;DHT22;6611;52.604;13.438;2023-07-29T14:57:10;22.47;80.56
13091;DHT22;6611;52.604;13.438;2023-07-29T15:02:13;22.41;81.34
13091;DHT22;6611;52.604;13.438;2023-07-29T15:07:15;22.26;81.63
13091;DHT22;6611;52.604;13.438;2023-07-29T15:12:17;22.23;81.96
13091;DHT22;6611;52.604;13.438;2023-07-29T15:17:20;22.08;81.79
13091;DHT22;6611;52.604;13.438;2023-07-29T15:22:21;22.01;82.11
13091;DHT22;6611;52.604;13.438;2023-07-29T15:27:23;21.98;81.82
13091;DHT22;6611;52.604;13.438;2023-07-29T15:32:26;21.88;82.04
13091;DHT22;6611;52.604;13.438;2023-07-29T15:37:28;21.74;82.96
13091;DHT22;6611;52.604;13.438;2023-07-29T15:42:30;21.55;83.65
13091;DHT22;6611;52.604;13.438;2023-07-29T15:47:33;21.37;84.97
13091;DHT22;6611;52.604;13.438;2023-07-29T15:52:35;21.10;85.82
13091;DHT22;6611;52.604;13.438;2023-07-29T15:57:37;20.78;85.50
13091;DHT22;6611;52.604;13.438;2023-07-29T16:02:40;20.41;84.89
13091;DHT22;6611;52.604;13.438;2023-07-29T16:07:41;20.30;85.85
13091;DHT22;6611;52.604;13.438;2023-07-29T16:12:43;20.58;86.53
13091;DHT22;6611;52.604;13.438;2023-07-29T16:17:46;20.98;85.69
13091;DHT22;6611;52.604;13.438;2023-07-29T16:22:50;21.39;84.66
13091;DHT22;6611;52.604;13.438;2023-07-29T16:27:52;21.46;82.29
13091;DHT22;6611;52.604;13.438;2023-07-29T16:32:55;21.34;82.62
13091;DHT22;6611;52.604;13.438;2023-07-29T16:37:56;21.13;83.19
13091;DHT22;6611;52.604;13.438;2023-07-29T16:43:00;20.99;84.00
13091;DHT22;6611;52.604;13.438;2023-07-29T16:48:03;20.78;84.65
13091;DHT22;6611;52.604;13.438;2023-07-29T16:53:05;20.71;84.03
13091;DHT22;6611;52.604;13.438;2023-07-29T16:58:06;20.63;83.98
13091;DHT22;6611;52.604;13.438;2023-07-29T17:03:10;20.63;84.13
13091;DHT22;6611;52.604;13.438;2023-07-29T17:08:11;20.64;83.92
13091;DHT22;6611;52.604;13.438;2023-07-29T17:13:13;20.65;83.98
13091;DHT22;6611;52.604;13.438;2023-07-29T17:18:16;20.74;83.36
13091;DHT22;6611;52.604;13.438;2023-07-29T17:23:18;20.75;83.99
13091;DHT22;6611;52.604;13.438;2023-07-29T17:28:19;20.81;82.88
13091;DHT22;6611;52.604;13.438;2023-07-29T17:33:22;20.75;82.42
13091;DHT22;6611;52.604;13.438;2023-07-29T17:38:25;20.71;83.62
13091;DHT22;6611;52.604;13.438;2023-07-29T17:43:26;20.72;83.66
13091;DHT22;6611;52.604;13.438;2023-07-29T17:48:30;20.67;83.98
13091;DHT22;6611;52.604;13.438;2023-07-29T17:53:31;20.63;84.07
13091;DHT22;6611;52.604;13.438;2023-07-29T17:58:33;20.60;84.19
13091;DHT22;6611;52.604;13.438;2023-07-29T18:03:36;20.57;84.42
13091;DHT22;6611;52.604;13.438;2023-07-29T18:08:38;20.48;84.93
13091;DHT22;6611;52.604;13.438;2023-07-29T18:13:39;20.43;85.10
13091;DHT22;6611;52.604;13.438;2023-07-29T18:18:42;20.30;85.46
13091;DHT22;6611;52.604;13.438;2023-07-29T18:23:44;20.23;85.29
13091;DHT22;6611;52.604;13.438;2023-07-29T18:28:46;20.13;85.92
13091;DHT22;6611;52.604;13.438;2023-07-29T18:33:49;20.10;86.38
13091;DHT22;6611;52.604;13.438;2023-07-29T18:38:50;19.99;86.48
13091;DHT22;6611;52.604;13.438;2023-07-29T18:43:52;19.95;86.54
13091;DHT22;6611;52.604;13.438;2023-07-29T18:48:59;19.91;86.68
13091;DHT22;6611;52.604;13.438;2023-07-29T18:54:00;19.86;87.14
13091;DHT22;6611;52.604;13.438;2023-07-29T18:59:02;19.75;87.50
13091;DHT22;6611;52.604;13.438;2023-07-29T19:04:06;19.67;87.57
13091;DHT22;6611;52.604;13.438;2023-07-29T19:09:08;19.60;87.73
13091;DHT22;6611;52.604;13.438;2023-07-29T19:14:10;19.51;88.32
13091;DHT22;6611;52.604;13.438;2023-07-29T19:19:13;19.47;88.23
13091;DHT22;6611;52.604;13.438;2023-07-29T19:24:15;19.40;88.39
13091;DHT22;6611;52.604;13.438;2023-07-29T19:29:16;19.40;88.63
13091;DHT22;6611;52.604;13.438;2023-07-29T19:34:19;19.34;88.71
13091;DHT22;6611;52.604;13.438;2023-07-29T19:39:21;19.29;88.54
13091;DHT22;6611;52.604;13.438;2023-07-29T19:44:23;19.20;88.51
13091;DHT22;6611;52.604;13.438;2023-07-29T19:49:26;19.12;88.65
13091;DHT22;6611;52.604;13.438;2023-07-29T19:54:27;19.05;88.93
13091;DHT22;6611;52.604;13.438;2023-07-29T19:59:29;18.92;88.88
13091;DHT22;6611;52.604;13.438;2023-07-29T20:04:32;18.81;88.91
13091;DHT22;6611;52.604;13.438;2023-07-29T20:09:34;18.77;88.73
13091;DHT22;6611;52.604;13.438;2023-07-29T20:14:36;18.70;88.87
13091;DHT22;6611;52.604;13.438;2023-07-29T20:19:39;18.63;88.74
13091;DHT22;6611;52.604;13.438;2023-07-29T20:24:40;18.53;88.98
13091;DHT22;6611;52.604;13.438;2023-07-29T20:29:42;18.49;88.86
13091;DHT22;6611;52.604;13.438;2023-07-29T20:34:45;18.42;89.15
13091;DHT22;6611;52.604;13.438;2023-07-29T20:39:47;18.43;89.72
13091;DHT22;6611;52.604;13.438;2023-07-29T20:44:48;18.47;89.77
13091;DHT22;6611;52.604;13.438;2023-07-29T20:49:51;18.39;89.67
13091;DHT22;6611;52.604;13.438;2023-07-29T20:54:53;18.36;89.69
13091;DHT22;6611;52.604;13.438;2023-07-29T20:59:55;18.32;90.02
13091;DHT22;6611;52.604;13.438;2023-07-29T21:04:58;18.26;89.92
13091;DHT22;6611;52.604;13.438;2023-07-29T21:09:59;18.29;89.82
13091;DHT22;6611;52.604;13.438;2023-07-29T21:15:03;18.30;89.62
13091;DHT22;6611;52.604;13.438;2023-07-29T21:20:07;18.28;89.61
13091;DHT22;6611;52.604;13.438;2023-07-29T21:25:09;18.25;89.71
13091;DHT22;6611;52.604;13.438;2023-07-29T21:30:11;18.29;90.01
13091;DHT22;6611;52.604;13.438;2023-07-29T21:35:14;18.36;90.06
13091;DHT22;6611;52.604;13.438;2023-07-29T21:40:16;18.36;90.28
13091;DHT22;6611;52.604;13.438;2023-07-29T21:45:17;18.36;90.31
13091;DHT22;6611;52.604;13.438;2023-07-29T21:50:20;18.32;90.27
13091;DHT22;6611;52.604;13.438;2023-07-29T21:55:22;18.32;90.57
13091;DHT22;6611;52.604;13.438;2023-07-29T22:00:24;18.34;90.84
13091;DHT22;6611;52.604;13.438;2023-07-29T22:05:27;18.37;90.83
13091;DHT22;6611;52.604;13.438;2023-07-29T22:10:29;18.42;90.95
13091;DHT22;6611;52.604;13.438;2023-07-29T22:15:33;18.47;90.86
13091;DHT22;6611;52.604;13.438;2023-07-29T22:20:36;18.49;90.90
13091;DHT22;6611;52.604;13.438;2023-07-29T22:25:38;18.49;90.90
13091;DHT22;6611;52.604;13.438;2023-07-29T22:30:39;18.50;90.89
13091;DHT22;6611;52.604;13.438;2023-07-29T22:35:42;18.57;90.83
13091;DHT22;6611;52.604;13.438;2023-07-29T22:40:50;18.54;90.78
13091;DHT22;6611;52.604;13.438;2023-07-29T22:45:54;18.53;90.75
13091;DHT22;6611;52.604;13.438;2023-07-29T22:50:57;18.56;90.82
13091;DHT22;6611;52.604;13.438;2023-07-29T22:55:59;18.59;90.71
13091;DHT22;6611;52.604;13.438;2023-07-29T23:01:00;18.61;90.42
13091;DHT22;6611;52.604;13.438;2023-07-29T23:06:03;18.49;90.01
13091;DHT22;6611;52.604;13.438;2023-07-29T23:11:05;18.36;89.64
13091;DHT22;6611;52.604;13.438;2023-07-29T23:16:06;18.26;89.77
13091;DHT22;6611;52.604;13.438;2023-07-29T23:21:09;18.16;89.56
13091;DHT22;6611;52.604;13.438;2023-07-29T23:26:11;18.02;89.95
13091;DHT22;6611;52.604;13.438;2023-07-29T23:31:13;17.99;90.28
13091;DHT22;6611;52.604;13.438;2023-07-29T23:36:16;17.89;90.33
13091;DHT22;6611;52.604;13.438;2023-07-29T23:41:17;17.87;90.24
13091;DHT22;6611;52.604;13.438;2023-07-29T23:46:19;17.84;90.24
13091;DHT22;6611;52.604;13.438;2023-07-29T23:51:22;17.80;90.10
13091;DHT22;6611;52.604;13.438;2023-07-29T23:56:24;17.73;89.97
